首页
METAR-TAF:

METAR-TAF

机场 :

Manzanillo, 古巴

纬度: 20-20N, 经度: 077-07W, 海拔: 60米

当前天气观测

该预报发布于7小时和21分钟前的13:50 UTC
风速18节,风向东转东北
温度 27°C
湿度 70%
气压 1016 hPa
能见度10公里或以上
散云层高于2000英尺

METAR: MUMZ 171350Z 07018KT 9999 SCT020 27/21 Q1016

时间: 17:11 (21:11 UTC)

预报

该预报发布于10小时和11分钟前的11:00 UTC
预报有效从17日的 12点(UTC)到 17日的 24点(UTC)
风速11节,风向
能見度: 9000
散云层高于2000英尺
短暂存在
从 17日的 18点(UTC)到 17日的 24点(UTC)
多云层高于2000英尺

TAF: MUMZ 171100Z 1712/1724 08011KT 9000 SCT020 TEMPO 1718/1724 BKN020

超过4000个机场的气象观测和天气预报(METAR&TAF报告)。

可查询的气象台以黄色和红色小点在地图上表示。

将鼠标移到小点上方,可查看气象台名称。

然后点击查看天气观测和预报。

如需切换地图:点击带黑十字的绿色按钮放大地图;点击带横线的绿色按钮缩小地图;或者点击绿色箭头查看邻近地区的地图。


METAR-TAF: